createdAt,value
2023-03-06T00:01:08.357Z,1.32
2023-03-06T00:04:10.993Z,1.44
2023-03-06T00:07:13.985Z,1.52
2023-03-06T00:10:20.097Z,1.45
2023-03-06T00:13:26.918Z,1.36
2023-03-06T00:16:29.669Z,1.52
2023-03-06T00:19:32.399Z,1.45
2023-03-06T00:22:35.152Z,1.35
2023-03-06T00:25:38.958Z,1.31
2023-03-06T00:28:41.903Z,1.22
2023-03-06T00:31:47.979Z,1.19
2023-03-06T00:34:54.450Z,1.24
2023-03-06T00:37:59.843Z,1.08
2023-03-06T00:41:13.411Z,1.23
2023-03-06T00:44:16.088Z,1.19
2023-03-06T00:47:19.606Z,1.15
2023-03-06T00:50:22.289Z,1.15
2023-03-06T00:53:24.983Z,1.17
2023-03-06T00:56:27.666Z,1.18
2023-03-06T00:59:30.306Z,1.21
2023-03-06T01:02:33.117Z,1.22
2023-03-06T01:05:37.711Z,1.21
2023-03-06T01:08:40.317Z,1.26
2023-03-06T01:11:43.172Z,1.19
2023-03-06T01:14:45.899Z,1.17
2023-03-06T01:17:49.022Z,1.18
2023-03-06T01:20:51.710Z,1.23
2023-03-06T01:23:54.345Z,1.24
2023-03-06T01:26:57.331Z,1.35
2023-03-06T01:30:00.034Z,1.30
2023-03-06T01:33:05.743Z,1.34
2023-03-06T01:36:11.150Z,1.31
2023-03-06T01:39:13.886Z,1.32
2023-03-06T01:42:16.747Z,1.33
2023-03-06T01:45:25.486Z,1.32
2023-03-06T01:48:28.280Z,1.34
2023-03-06T01:51:36.374Z,1.40
2023-03-06T01:54:45.665Z,1.42
2023-03-06T01:57:53.058Z,1.55
2023-03-06T02:00:55.637Z,1.75
2023-03-06T02:03:58.732Z,1.94
2023-03-06T02:07:01.671Z,2.29
2023-03-06T02:10:05.472Z,2.44
2023-03-06T02:13:08.146Z,2.51
2023-03-06T02:16:11.787Z,2.56
2023-03-06T02:19:46.607Z,2.58
2023-03-06T02:22:52.866Z,2.61
2023-03-06T02:25:56.094Z,2.66
2023-03-06T02:28:59.492Z,2.65
2023-03-06T02:32:02.275Z,2.72
2023-03-06T02:35:05.257Z,2.70
2023-03-06T02:38:12.609Z,2.73
2023-03-06T02:41:18.787Z,2.78
2023-03-06T02:44:23.186Z,2.77
2023-03-06T02:47:25.863Z,2.71
2023-03-06T02:50:28.612Z,2.71
2023-03-06T02:53:31.421Z,2.76
2023-03-06T02:56:34.079Z,2.71
2023-03-06T02:59:36.764Z,2.66
2023-03-06T03:02:39.883Z,2.66
2023-03-06T03:05:42.549Z,2.61
2023-03-06T03:08:45.198Z,2.57
2023-03-06T03:11:47.813Z,2.47
2023-03-06T03:14:50.431Z,2.57
2023-03-06T03:17:56.226Z,2.61
2023-03-06T03:20:59.453Z,2.55
2023-03-06T03:24:02.098Z,2.56
2023-03-06T03:27:07.657Z,2.56
2023-03-06T03:30:11.433Z,2.44
2023-03-06T03:33:14.042Z,2.53
2023-03-06T03:36:16.677Z,2.50
2023-03-06T03:39:20.052Z,2.51
2023-03-06T03:42:25.994Z,2.47
2023-03-06T03:45:28.670Z,2.43
2023-03-06T03:48:32.013Z,2.40
2023-03-06T03:51:34.714Z,2.40
2023-03-06T03:54:37.815Z,2.36
2023-03-06T03:57:40.459Z,2.35
2023-03-06T04:00:43.156Z,2.32
2023-03-06T04:03:46.069Z,2.25
2023-03-06T04:06:48.939Z,2.26
2023-03-06T04:09:51.559Z,2.24
2023-03-06T04:12:54.246Z,2.22
2023-03-06T04:15:57.011Z,2.17
2023-03-06T04:18:59.734Z,2.17
2023-03-06T04:22:04.550Z,2.19
2023-03-06T04:25:07.542Z,2.18
2023-03-06T04:28:10.843Z,2.16
2023-03-06T04:31:13.750Z,2.12
2023-03-06T04:34:16.544Z,2.09
2023-03-06T04:37:24.991Z,2.09
2023-03-06T04:40:29.248Z,2.10
2023-03-06T04:43:32.014Z,2.08
2023-03-06T04:46:35.550Z,2.06
2023-03-06T04:49:38.502Z,2.08
2023-03-06T04:52:41.163Z,2.06
2023-03-06T04:55:43.933Z,2.05
2023-03-06T04:58:46.597Z,2.02
2023-03-06T05:01:49.783Z,2.03
2023-03-06T05:04:52.598Z,1.99
2023-03-06T05:07:55.539Z,1.98
2023-03-06T05:11:00.546Z,1.93
2023-03-06T05:14:03.145Z,1.93
2023-03-06T05:17:05.926Z,1.88
2023-03-06T05:20:10.503Z,1.85
2023-03-06T05:23:13.665Z,1.87
2023-03-06T05:26:16.966Z,1.81
2023-03-06T05:29:20.045Z,1.75
2023-03-06T05:32:22.935Z,1.69
2023-03-06T05:35:25.850Z,1.68
2023-03-06T05:38:29.049Z,1.60
2023-03-06T05:41:31.708Z,1.57
2023-03-06T05:44:35.532Z,1.55
2023-03-06T05:47:38.202Z,1.58
2023-03-06T05:50:40.810Z,1.58
2023-03-06T05:53:43.625Z,1.57
2023-03-06T05:56:46.206Z,1.56
2023-03-06T05:59:50.337Z,1.58
2023-03-06T06:02:53.170Z,1.55
2023-03-06T06:05:55.794Z,1.56
2023-03-06T06:08:58.522Z,1.57
2023-03-06T06:12:03.860Z,1.55
2023-03-06T06:15:07.421Z,1.62
2023-03-06T06:18:10.079Z,1.67
2023-03-06T06:21:14.796Z,1.67
2023-03-06T06:24:20.918Z,1.65
2023-03-06T06:27:23.564Z,1.72
2023-03-06T06:30:26.259Z,1.80
2023-03-06T06:33:29.121Z,1.85
2023-03-06T06:36:32.610Z,1.91
2023-03-06T06:39:35.494Z,1.96
2023-03-06T06:42:40.083Z,1.99
2023-03-06T06:45:47.305Z,2.03
2023-03-06T06:48:54.757Z,1.98
2023-03-06T06:51:57.737Z,2.08
2023-03-06T06:55:00.404Z,2.13
2023-03-06T06:58:03.080Z,2.15
2023-03-06T07:01:08.635Z,2.15
2023-03-06T07:04:13.282Z,2.20
2023-03-06T07:07:16.065Z,2.26
2023-03-06T07:10:20.737Z,2.28
2023-03-06T07:13:23.818Z,2.32
2023-03-06T07:16:29.709Z,2.37
2023-03-06T07:19:33.159Z,2.33
2023-03-06T07:22:48.654Z,2.55
2023-03-06T07:25:54.882Z,2.62
2023-03-06T07:29:00.679Z,2.70
2023-03-06T07:32:03.456Z,2.79
2023-03-06T07:35:19.817Z,2.80
2023-03-06T07:38:23.057Z,2.83
2023-03-06T07:41:25.775Z,2.89
2023-03-06T07:44:28.737Z,2.89
2023-03-06T07:47:31.523Z,2.94
2023-03-06T07:50:35.252Z,2.94
2023-03-06T07:53:38.281Z,2.87
2023-03-06T07:56:40.933Z,2.91
2023-03-06T07:59:43.539Z,2.91
2023-03-06T08:02:47.008Z,2.87
2023-03-06T08:05:49.814Z,2.88
2023-03-06T08:08:53.956Z,2.88
2023-03-06T08:11:56.799Z,2.90
2023-03-06T08:14:59.439Z,2.82
2023-03-06T08:18:03.991Z,2.80
2023-03-06T08:21:06.798Z,2.76
2023-03-06T08:24:09.515Z,2.77
2023-03-06T08:27:12.171Z,2.83
2023-03-06T08:30:18.081Z,2.97
2023-03-06T08:33:20.825Z,2.93
2023-03-06T08:36:24.183Z,3.03
2023-03-06T08:39:26.851Z,3.23
2023-03-06T08:42:29.404Z,3.10
2023-03-06T08:45:32.033Z,3.13
2023-03-06T08:48:34.737Z,3.00
2023-03-06T08:51:37.571Z,2.97
2023-03-06T08:54:40.282Z,3.12
2023-03-06T08:57:42.917Z,3.10
2023-03-06T09:00:45.947Z,3.21
2023-03-06T09:03:49.242Z,3.32
2023-03-06T09:06:53.934Z,3.34
2023-03-06T09:09:58.329Z,3.37
2023-03-06T09:13:04.034Z,3.49
2023-03-06T09:16:07.648Z,3.56
2023-03-06T09:19:10.586Z,3.64
2023-03-06T09:22:13.263Z,3.75
2023-03-06T09:25:20.576Z,3.68
2023-03-06T09:28:26.998Z,3.74
2023-03-06T09:31:31.807Z,3.58
2023-03-06T09:34:34.474Z,3.64
2023-03-06T09:37:41.099Z,3.77
2023-03-06T09:40:52.683Z,3.87
2023-03-06T09:44:08.818Z,3.86
2023-03-06T09:47:28.831Z,3.96
2023-03-06T09:50:46.125Z,4.08
2023-03-06T09:54:06.999Z,4.20
2023-03-06T09:57:27.564Z,4.27
2023-03-06T10:00:34.609Z,4.36
2023-03-06T10:03:48.551Z,4.31
2023-03-06T10:06:56.429Z,4.57
2023-03-06T10:10:05.028Z,4.61
2023-03-06T10:13:15.550Z,4.95
2023-03-06T10:16:30.281Z,4.68
2023-03-06T10:19:42.713Z,5.01
2023-03-06T10:23:01.055Z,4.87
2023-03-06T10:26:40.100Z,4.96
2023-03-06T10:30:06.948Z,5.02
2023-03-06T10:33:36.565Z,5.19
2023-03-06T10:36:42.407Z,5.17
2023-03-06T10:39:50.244Z,5.26
2023-03-06T10:43:10.624Z,5.14
2023-03-06T10:46:30.460Z,5.52
2023-03-06T10:49:37.535Z,5.49
2023-03-06T10:52:40.356Z,5.68
2023-03-06T10:55:51.636Z,5.55
2023-03-06T10:59:23.147Z,5.76
2023-03-06T11:02:30.238Z,5.96
2023-03-06T11:05:33.014Z,5.95
2023-03-06T11:08:39.201Z,6.12
2023-03-06T11:11:42.222Z,6.37
2023-03-06T11:14:45.022Z,6.41
2023-03-06T11:17:57.904Z,6.79
2023-03-06T11:21:07.386Z,6.90
2023-03-06T11:24:17.046Z,6.12
2023-03-06T11:27:34.642Z,6.51
2023-03-06T11:30:47.824Z,6.84
2023-03-06T11:34:09.657Z,7.01
2023-03-06T11:37:23.200Z,7.05
2023-03-06T11:40:45.252Z,7.18
2023-03-06T11:44:04.647Z,7.16
2023-03-06T11:47:42.877Z,7.06
2023-03-06T11:50:53.265Z,7.02
2023-03-06T11:53:59.222Z,7.29
2023-03-06T11:57:05.970Z,7.75
2023-03-06T12:00:14.240Z,7.97
2023-03-06T12:03:39.971Z,8.26
2023-03-06T12:07:01.124Z,7.93
2023-03-06T12:10:31.037Z,7.79
2023-03-06T12:13:47.911Z,7.41
2023-03-06T12:17:05.860Z,7.68
2023-03-06T12:20:29.192Z,7.87
2023-03-06T12:24:03.918Z,7.87
2023-03-06T12:27:26.001Z,7.84
2023-03-06T12:30:36.308Z,7.74
2023-03-06T12:34:14.703Z,7.74
2023-03-06T12:37:33.944Z,7.56
2023-03-06T12:41:01.946Z,7.46
2023-03-06T12:44:04.621Z,7.43
2023-03-06T12:47:12.922Z,7.20
2023-03-06T12:50:33.991Z,7.38
2023-03-06T12:53:36.959Z,7.34
2023-03-06T12:56:40.950Z,7.35
2023-03-06T12:59:48.719Z,7.10
2023-03-06T13:02:55.589Z,7.06
2023-03-06T13:06:32.449Z,7.05
2023-03-06T13:09:55.967Z,7.00
2023-03-06T13:13:05.209Z,6.82
2023-03-06T13:16:16.519Z,6.80
2023-03-06T13:19:26.469Z,6.75
2023-03-06T13:22:33.104Z,6.63
2023-03-06T13:25:37.674Z,6.48
2023-03-06T13:28:50.404Z,6.46
2023-03-06T13:31:53.039Z,6.29
2023-03-06T13:34:55.815Z,6.21
2023-03-06T13:37:59.969Z,6.13
2023-03-06T13:41:21.197Z,6.10
2023-03-06T13:44:23.833Z,6.14
2023-03-06T13:47:31.947Z,6.22
2023-03-06T13:50:40.543Z,6.29
2023-03-06T13:54:01.690Z,6.41
2023-03-06T13:57:22.635Z,6.24
2023-03-06T14:00:47.350Z,6.30
2023-03-06T14:04:01.001Z,6.26
2023-03-06T14:07:24.636Z,6.26
2023-03-06T14:10:31.002Z,6.22
2023-03-06T14:13:47.129Z,5.99
2023-03-06T14:16:53.717Z,6.09
2023-03-06T14:20:00.236Z,6.17
2023-03-06T14:23:32.544Z,6.22
2023-03-06T14:26:42.062Z,6.09
2023-03-06T14:29:46.720Z,6.11
2023-03-06T14:32:54.497Z,6.18
2023-03-06T14:36:00.366Z,6.21
2023-03-06T14:39:09.006Z,6.18
2023-03-06T14:42:24.926Z,6.16
2023-03-06T14:45:31.994Z,6.20
2023-03-06T14:48:42.999Z,6.21
2023-03-06T14:51:52.250Z,6.18
2023-03-06T14:54:55.000Z,6.17
2023-03-06T14:58:03.195Z,6.22
2023-03-06T15:01:09.107Z,6.25
2023-03-06T15:04:29.373Z,6.20
2023-03-06T15:07:33.016Z,6.26
2023-03-06T15:10:37.457Z,6.22
2023-03-06T15:13:40.493Z,5.97
2023-03-06T15:16:43.160Z,6.00
2023-03-06T15:19:48.683Z,6.01
2023-03-06T15:22:51.370Z,5.84
2023-03-06T15:25:57.198Z,5.80
2023-03-06T15:29:22.088Z,5.76
2023-03-06T15:32:32.387Z,5.76
2023-03-06T15:35:37.918Z,5.71
2023-03-06T15:38:45.712Z,5.71
2023-03-06T15:41:48.425Z,5.68
2023-03-06T15:44:53.613Z,5.66
2023-03-06T15:47:57.320Z,5.65
2023-03-06T15:51:01.067Z,5.57
2023-03-06T15:54:11.842Z,5.56
2023-03-06T15:57:26.756Z,5.54
2023-03-06T16:00:34.499Z,5.53
2023-03-06T16:03:37.064Z,5.47
2023-03-06T16:06:43.828Z,5.47
2023-03-06T16:09:46.731Z,5.49
2023-03-06T16:12:52.959Z,5.48
2023-03-06T16:15:55.631Z,5.47
2023-03-06T16:19:13.983Z,5.43
2023-03-06T16:22:22.957Z,5.39
2023-03-06T16:25:27.937Z,5.34
2023-03-06T16:28:32.210Z,5.32
2023-03-06T16:31:34.990Z,5.26
2023-03-06T16:34:38.561Z,5.22
2023-03-06T16:37:45.323Z,5.20
2023-03-06T16:40:51.104Z,5.17
2023-03-06T16:43:54.882Z,5.10
2023-03-06T16:47:01.169Z,5.06
2023-03-06T16:50:04.597Z,5.03
2023-03-06T16:53:11.626Z,4.97
2023-03-06T16:56:17.845Z,4.90
2023-03-06T16:59:25.383Z,4.73
2023-03-06T17:02:28.286Z,4.68
2023-03-06T17:05:34.485Z,4.60
2023-03-06T17:08:38.656Z,4.55
2023-03-06T17:11:47.652Z,4.57
2023-03-06T17:14:50.805Z,4.57
2023-03-06T17:17:53.610Z,4.58
2023-03-06T17:20:56.719Z,4.54
2023-03-06T17:24:02.561Z,4.51
2023-03-06T17:27:05.359Z,4.43
2023-03-06T17:30:08.587Z,4.37
2023-03-06T17:33:12.456Z,4.33
2023-03-06T17:36:16.396Z,4.31
2023-03-06T17:39:23.159Z,4.28
2023-03-06T17:42:26.000Z,4.23
2023-03-06T17:45:29.698Z,4.20
2023-03-06T17:48:35.603Z,4.21
2023-03-06T17:51:39.854Z,4.15
2023-03-06T17:54:42.766Z,4.04
2023-03-06T17:57:45.415Z,3.97
2023-03-06T18:00:48.539Z,3.97
2023-03-06T18:03:51.511Z,3.94
2023-03-06T18:06:54.843Z,3.83
2023-03-06T18:10:07.110Z,3.81
2023-03-06T18:13:10.770Z,3.71
2023-03-06T18:16:15.868Z,3.65
2023-03-06T18:19:18.626Z,3.55
2023-03-06T18:22:24.761Z,3.55
2023-03-06T18:25:33.629Z,3.54
2023-03-06T18:28:36.536Z,3.46
2023-03-06T18:31:41.207Z,3.54
2023-03-06T18:34:44.199Z,3.49
2023-03-06T18:37:46.928Z,3.35
2023-03-06T18:40:49.917Z,3.39
2023-03-06T18:43:56.702Z,3.68
2023-03-06T18:46:59.340Z,3.68
2023-03-06T18:50:04.880Z,3.79
2023-03-06T18:53:08.385Z,3.85
2023-03-06T18:56:16.992Z,3.76
2023-03-06T18:59:20.517Z,3.70
2023-03-06T19:02:23.840Z,3.70
2023-03-06T19:05:26.718Z,3.66
2023-03-06T19:08:30.875Z,3.62
2023-03-06T19:11:35.213Z,3.61
2023-03-06T19:14:38.347Z,3.57
2023-03-06T19:17:41.250Z,3.57
2023-03-06T19:20:44.936Z,3.48
2023-03-06T19:23:48.746Z,3.41
2023-03-06T19:26:51.778Z,3.38
2023-03-06T19:29:54.811Z,3.36
2023-03-06T19:32:57.910Z,3.28
2023-03-06T19:36:02.537Z,3.22
2023-03-06T19:39:07.161Z,3.13
2023-03-06T19:42:12.846Z,3.07
2023-03-06T19:45:17.265Z,3.02
2023-03-06T19:48:22.582Z,2.94
2023-03-06T19:51:27.007Z,2.83
2023-03-06T19:54:34.253Z,2.70
2023-03-06T19:57:37.318Z,2.62
2023-03-06T20:00:41.739Z,2.53
2023-03-06T20:03:45.085Z,2.40
2023-03-06T20:06:50.634Z,2.19
2023-03-06T20:09:54.580Z,2.16
2023-03-06T20:12:57.614Z,2.13
2023-03-06T20:16:04.350Z,2.07
2023-03-06T20:19:08.808Z,1.92
2023-03-06T20:22:12.916Z,1.86
2023-03-06T20:25:16.170Z,1.79
2023-03-06T20:28:22.435Z,1.78
2023-03-06T20:31:28.525Z,1.78
2023-03-06T20:34:31.493Z,1.78
2023-03-06T20:37:34.631Z,1.82
2023-03-06T20:40:42.209Z,1.72
2023-03-06T20:43:45.618Z,1.70
2023-03-06T20:46:48.912Z,1.67
2023-03-06T20:49:51.957Z,1.71
2023-03-06T20:52:56.308Z,1.70
2023-03-06T20:55:59.324Z,1.70
2023-03-06T20:59:02.730Z,1.73
2023-03-06T21:02:10.405Z,1.71
2023-03-06T21:05:16.530Z,1.73
2023-03-06T21:08:19.526Z,1.57
2023-03-06T21:11:22.383Z,1.68
2023-03-06T21:14:25.069Z,1.61
2023-03-06T21:17:30.370Z,1.51
2023-03-06T21:20:33.884Z,1.54
2023-03-06T21:23:37.794Z,1.49
2023-03-06T21:26:40.790Z,1.51
2023-03-06T21:29:44.888Z,1.47
2023-03-06T21:32:47.721Z,1.45
2023-03-06T21:35:50.497Z,1.38
2023-03-06T21:38:55.058Z,1.34
2023-03-06T21:41:57.921Z,1.35
2023-03-06T21:45:00.514Z,1.31
2023-03-06T21:48:03.373Z,1.27
2023-03-06T21:51:21.050Z,1.13
2023-03-06T21:54:27.245Z,0.99
2023-03-06T21:57:30.423Z,0.95
2023-03-06T22:00:36.497Z,0.94
2023-03-06T22:03:42.065Z,0.86
2023-03-06T22:06:48.212Z,0.82
2023-03-06T22:09:53.807Z,0.73
2023-03-06T22:12:56.534Z,0.80
2023-03-06T22:15:59.197Z,0.69
2023-03-06T22:19:01.961Z,0.66
2023-03-06T22:22:05.004Z,0.62
2023-03-06T22:25:08.260Z,0.58
2023-03-06T22:28:10.959Z,0.59
2023-03-06T22:31:16.645Z,0.43
2023-03-06T22:34:19.264Z,0.55
2023-03-06T22:37:25.080Z,0.47
2023-03-06T22:40:27.844Z,0.46
2023-03-06T22:43:30.964Z,0.32
2023-03-06T22:46:33.883Z,0.30
2023-03-06T22:49:37.991Z,0.24
2023-03-06T22:52:40.976Z,0.22
2023-03-06T22:55:44.027Z,0.12
2023-03-06T22:58:47.438Z,-0.01
2023-03-06T23:01:50.182Z,-0.05
2023-03-06T23:04:53.524Z,-0.22
2023-03-06T23:07:56.193Z,-0.28
2023-03-06T23:10:58.846Z,-0.41
2023-03-06T23:14:01.807Z,-0.47
2023-03-06T23:17:05.019Z,-0.54
2023-03-06T23:20:10.316Z,-0.72
2023-03-06T23:23:13.047Z,-0.72
2023-03-06T23:26:16.192Z,-0.75
2023-03-06T23:29:19.011Z,-0.80
2023-03-06T23:32:24.780Z,-0.91
2023-03-06T23:35:27.407Z,-1.01
2023-03-06T23:38:30.466Z,-0.96
2023-03-06T23:41:33.424Z,-1.05
2023-03-06T23:44:36.238Z,-1.10
2023-03-06T23:47:38.799Z,-1.11
2023-03-06T23:50:44.573Z,-1.18
2023-03-06T23:53:48.375Z,-1.22
2023-03-06T23:56:51.016Z,-1.21
2023-03-06T23:59:53.647Z,-1.30
